Lukeville, Arizona
Current Conditions -  °F | °C
As of 6:56 PM on Wednesday 22 Oct 2014 (Local Time) from KGXF Reporting Station
Clear Clear  
Wind Chill: 82°   Ceiling: Unl
Heat Index: 82°   Visibility: 8mi
Dew Point: 44°   Wind: 2mph
Humidity: 26%   Direction: 360°N
Pressure: 29.92"   Gusts: NA
Location:  31.88°N, 112.82°W
Report Text: KGXF 230156Z AUTO 36002KT 8SM CLR 28/07 A2992 RMK AO2 SLPNO T02790069
Loading
Personal Weather Stations






























Interactive Weather Map
Tropical Storm Tracking
New forecast layout! Learn more

10-Day Weather Forecast

Advertisements
Track Severe Weather on mobile